createdAt,value
2023-03-30T00:02:54.835Z,8.9
2023-03-30T00:08:00.949Z,8.3
2023-03-30T00:13:07.069Z,8
2023-03-30T00:18:13.180Z,8.3
2023-03-30T00:23:19.290Z,7.6
2023-03-30T00:28:25.403Z,8.3
2023-03-30T00:33:31.503Z,8
2023-03-30T00:38:37.611Z,8.3
2023-03-30T00:43:43.732Z,8
2023-03-30T00:48:49.847Z,8.3
2023-03-30T00:53:55.996Z,8
2023-03-30T00:59:02.072Z,8
2023-03-30T01:04:08.169Z,8.3
2023-03-30T01:09:13.311Z,8.3
2023-03-30T01:14:19.401Z,8
2023-03-30T01:19:25.545Z,7.6
2023-03-30T01:24:31.648Z,8
2023-03-30T01:29:37.846Z,8.3
2023-03-30T01:34:43.991Z,8.3
2023-03-30T01:39:49.986Z,8.3
2023-03-30T01:44:56.092Z,8
2023-03-30T01:50:02.192Z,8.3
2023-03-30T01:55:08.311Z,7.6
2023-03-30T02:00:14.420Z,7.6
2023-03-30T02:05:20.528Z,8
2023-03-30T02:10:26.642Z,8.3
2023-03-30T02:20:37.883Z,8
2023-03-30T02:25:44.021Z,8
2023-03-30T02:30:50.131Z,8.3
2023-03-30T02:35:56.236Z,7
2023-03-30T02:41:02.362Z,8
2023-03-30T02:46:08.464Z,7.3
2023-03-30T02:51:14.576Z,8
2023-03-30T02:56:20.677Z,8
2023-03-30T03:01:26.808Z,8
2023-03-30T03:06:32.902Z,8
2023-03-30T03:11:39.014Z,8.3
2023-03-30T03:16:45.136Z,8
2023-03-30T03:21:50.264Z,7.3
2023-03-30T03:26:56.372Z,8
2023-03-30T03:32:02.496Z,7.6
2023-03-30T03:37:08.598Z,7.6
2023-03-30T03:42:14.736Z,7.6
2023-03-30T03:47:20.833Z,7.3
2023-03-30T03:52:26.967Z,7.6
2023-03-30T03:57:33.053Z,8
2023-03-30T04:02:39.177Z,7.6
2023-03-30T04:07:45.289Z,7.6
2023-03-30T04:12:51.397Z,8.6
2023-03-30T04:17:57.529Z,7.3
2023-03-30T04:23:03.628Z,7.3
2023-03-30T04:28:08.746Z,7.3
2023-03-30T04:33:14.864Z,7.3
2023-03-30T04:38:20.979Z,7.3
2023-03-30T04:43:27.091Z,7.6
2023-03-30T04:48:33.196Z,7
2023-03-30T04:53:39.303Z,7.6
2023-03-30T04:58:45.434Z,7.3
2023-03-30T05:03:51.533Z,7.6
2023-03-30T05:08:57.654Z,7.3
2023-03-30T05:14:03.764Z,7.6
2023-03-30T05:19:09.879Z,7.3
2023-03-30T05:24:15.989Z,7.3
2023-03-30T05:29:22.108Z,7
2023-03-30T05:34:27.221Z,7.6
2023-03-30T05:39:33.359Z,7
2023-03-30T05:44:39.460Z,7.6
2023-03-30T05:49:45.569Z,7.6
2023-03-30T05:54:51.691Z,7.3
2023-03-30T05:59:57.800Z,7
2023-03-30T06:05:03.906Z,7.6
2023-03-30T06:10:10.075Z,7.3
2023-03-30T06:15:16.138Z,7.3
2023-03-30T06:20:22.316Z,7.6
2023-03-30T06:25:28.380Z,7.3
2023-03-30T06:30:34.473Z,7.3
2023-03-30T06:35:40.603Z,8
2023-03-30T06:40:45.731Z,7.3
2023-03-30T06:45:51.851Z,7
2023-03-30T06:50:57.963Z,7.3
2023-03-30T06:56:04.083Z,7.3
2023-03-30T07:01:10.196Z,7.3
2023-03-30T07:06:16.304Z,7
2023-03-30T07:11:22.417Z,7.6
2023-03-30T07:16:28.520Z,7.3
2023-03-30T07:21:34.637Z,7.6
2023-03-30T07:26:40.751Z,7.6
2023-03-30T07:31:46.854Z,7
2023-03-30T07:36:52.974Z,7.3
2023-03-30T07:41:59.069Z,7.6
2023-03-30T07:47:04.172Z,7.6
2023-03-30T07:52:10.325Z,7.6
2023-03-30T07:57:16.396Z,7.3
2023-03-30T08:02:22.512Z,7.6
2023-03-30T08:07:28.636Z,7.6
2023-03-30T08:12:34.733Z,7.3
2023-03-30T08:17:40.850Z,8
2023-03-30T08:22:46.959Z,8
2023-03-30T08:27:53.058Z,8
2023-03-30T08:32:59.188Z,8.3
2023-03-30T08:38:05.284Z,8
2023-03-30T08:43:11.443Z,7.6
2023-03-30T08:48:17.493Z,8
2023-03-30T08:53:22.606Z,8
2023-03-30T08:58:28.725Z,8.3
2023-03-30T09:03:34.829Z,8
2023-03-30T09:08:40.953Z,8.3
2023-03-30T09:13:47.057Z,8
2023-03-30T09:18:53.160Z,8.3
2023-03-30T09:23:59.267Z,8.6
2023-03-30T09:29:05.368Z,8.3
2023-03-30T09:34:11.476Z,8.6
2023-03-30T09:39:17.582Z,8.3
2023-03-30T09:44:23.688Z,8
2023-03-30T09:49:29.814Z,8.3
2023-03-30T09:54:35.918Z,8.6
2023-03-30T09:59:41.082Z,8.3
2023-03-30T10:04:47.161Z,8.6
2023-03-30T10:09:53.249Z,8.9
2023-03-30T10:14:59.387Z,8.6
2023-03-30T10:20:05.474Z,8.3
2023-03-30T10:25:11.584Z,8.9
2023-03-30T10:30:17.689Z,8.6
2023-03-30T10:35:23.808Z,8.9
2023-03-30T10:40:29.923Z,8.9
2023-03-30T10:45:36.048Z,8.6
2023-03-30T10:50:42.141Z,8.6
2023-03-30T10:55:48.263Z,8.9
2023-03-30T11:00:54.399Z,8.9
2023-03-30T11:05:59.526Z,9.2
2023-03-30T11:11:05.632Z,8.9
2023-03-30T11:16:11.748Z,9.2
2023-03-30T11:21:17.863Z,9.2
2023-03-30T11:26:23.969Z,9.2
2023-03-30T11:31:30.073Z,9.6
2023-03-30T11:36:36.192Z,9.2
2023-03-30T11:41:42.302Z,9.9
2023-03-30T11:46:48.413Z,9.6
2023-03-30T11:51:54.545Z,9.6
2023-03-30T11:57:00.636Z,10.2
2023-03-30T12:02:06.733Z,10.2
2023-03-30T12:07:12.876Z,10.2
2023-03-30T12:12:18.041Z,10.5
2023-03-30T12:17:24.088Z,10.5
2023-03-30T12:22:30.192Z,10.5
2023-03-30T12:27:36.375Z,10.9
2023-03-30T12:32:42.432Z,10.9
2023-03-30T12:37:48.537Z,10.2
2023-03-30T12:42:54.661Z,10.9
2023-03-30T12:48:00.753Z,10.9
2023-03-30T12:53:06.895Z,10.5
2023-03-30T12:58:13.133Z,10.9
2023-03-30T13:03:19.077Z,10.9
2023-03-30T13:08:25.200Z,10.5
2023-03-30T13:13:31.298Z,11.2
2023-03-30T13:18:36.429Z,11.2
2023-03-30T13:23:42.538Z,11.2
2023-03-30T13:28:48.678Z,11.5
2023-03-30T13:33:54.776Z,11.5
2023-03-30T13:39:00.890Z,11.2
2023-03-30T13:44:06.987Z,11.5
2023-03-30T13:49:13.094Z,11.5
2023-03-30T13:54:19.201Z,11.8
2023-03-30T13:59:25.352Z,11.5
2023-03-30T14:04:31.440Z,11.5
2023-03-30T14:09:37.698Z,11.5
2023-03-30T14:14:43.670Z,11.5
2023-03-30T14:19:49.784Z,11.5
2023-03-30T14:24:54.977Z,11.2
2023-03-30T14:30:01.023Z,11.2
2023-03-30T14:35:07.169Z,11.5
2023-03-30T14:40:13.249Z,11.8
2023-03-30T14:45:19.381Z,11.2
2023-03-30T14:50:25.479Z,11.2
2023-03-30T14:55:30.663Z,11.2
2023-03-30T15:00:36.731Z,11.2
2023-03-30T15:05:42.884Z,11.2
2023-03-30T15:10:48.958Z,11.5
2023-03-30T15:15:55.078Z,11.5
2023-03-30T15:21:01.174Z,11.2
2023-03-30T15:26:07.339Z,11.2
2023-03-30T15:31:13.417Z,10.9
2023-03-30T15:36:19.508Z,11.2
2023-03-30T15:41:25.665Z,10.9
2023-03-30T15:46:31.730Z,10.9
2023-03-30T15:51:37.868Z,11.2
2023-03-30T15:56:43.956Z,10.9
2023-03-30T16:01:49.068Z,11.5
2023-03-30T16:06:55.173Z,11.2
2023-03-30T16:12:01.272Z,10.9
2023-03-30T16:17:07.392Z,11.2
2023-03-30T16:22:13.523Z,11.5
2023-03-30T16:27:19.603Z,10.5
2023-03-30T16:32:25.730Z,11.5
2023-03-30T16:37:31.832Z,10.9
2023-03-30T16:42:37.937Z,11.2
2023-03-30T16:47:44.050Z,10.9
2023-03-30T16:52:50.177Z,10.5
2023-03-30T16:57:56.349Z,10.9
2023-03-30T17:03:02.413Z,10.9
2023-03-30T17:08:07.535Z,10.5
2023-03-30T17:13:13.632Z,10.5
2023-03-30T17:18:19.740Z,10.5
2023-03-30T17:23:25.899Z,10.9
2023-03-30T17:28:31.972Z,10.5
2023-03-30T17:33:38.107Z,10.5
2023-03-30T17:38:44.198Z,10.9
2023-03-30T17:43:50.337Z,10.9
2023-03-30T17:48:56.440Z,10.5
2023-03-30T17:54:02.525Z,10.5
2023-03-30T17:59:08.646Z,10.5
2023-03-30T18:04:14.800Z,10.2
2023-03-30T18:09:20.882Z,10.9
2023-03-30T18:14:26.011Z,10.9
2023-03-30T18:19:32.123Z,10.5
2023-03-30T18:24:38.219Z,10.2
2023-03-30T18:29:44.345Z,10.5
2023-03-30T18:34:50.464Z,10.2
2023-03-30T18:39:56.571Z,9.9
2023-03-30T18:45:02.700Z,9.9
2023-03-30T18:50:08.808Z,10.9
2023-03-30T18:55:14.920Z,10.2
2023-03-30T19:00:21.031Z,9.9
2023-03-30T19:05:27.346Z,9.9
2023-03-30T19:10:33.282Z,10.2
2023-03-30T19:15:39.352Z,9.6
2023-03-30T19:20:44.491Z,9.9
2023-03-30T19:25:50.595Z,9.9
2023-03-30T19:30:56.685Z,9.9
2023-03-30T19:36:02.823Z,10.2
2023-03-30T19:41:08.918Z,10.2
2023-03-30T19:46:15.037Z,10.2
2023-03-30T19:51:21.147Z,9.2
2023-03-30T19:56:27.255Z,9.6
2023-03-30T20:01:33.371Z,10.2
2023-03-30T20:06:39.518Z,9.6
2023-03-30T20:11:45.642Z,9.2
2023-03-30T20:16:51.739Z,9.6
2023-03-30T20:21:57.855Z,9.6
2023-03-30T20:27:02.980Z,9.6
2023-03-30T20:32:09.093Z,9.6
2023-03-30T20:37:15.192Z,9.9
2023-03-30T20:42:21.332Z,9.9
2023-03-30T20:47:27.430Z,9.9
2023-03-30T20:52:33.556Z,9.2
2023-03-30T20:57:39.657Z,9.6
2023-03-30T21:02:45.812Z,9.6
2023-03-30T21:07:51.882Z,9.6
2023-03-30T21:12:58.001Z,9.2
2023-03-30T21:18:04.090Z,9.9
2023-03-30T21:23:10.198Z,8.6
2023-03-30T21:28:16.300Z,9.2
2023-03-30T21:33:21.454Z,9.2
2023-03-30T21:38:27.560Z,9.6
2023-03-30T21:43:33.652Z,9.2
2023-03-30T21:48:39.758Z,8.9
2023-03-30T21:53:45.882Z,9.6
2023-03-30T21:58:51.984Z,9.2
2023-03-30T22:03:58.108Z,9.6
2023-03-30T22:09:04.212Z,9.2
2023-03-30T22:14:10.305Z,8.9
2023-03-30T22:19:16.430Z,8.9
2023-03-30T22:24:22.541Z,9.6
2023-03-30T22:29:28.691Z,9.6
2023-03-30T22:34:34.781Z,9.2
2023-03-30T22:39:39.894Z,9.6
2023-03-30T22:44:45.995Z,9.2
2023-03-30T22:49:52.107Z,8.9
2023-03-30T22:54:58.220Z,8.9
2023-03-30T23:00:04.334Z,9.2
2023-03-30T23:05:10.426Z,8.9
2023-03-30T23:10:16.541Z,8.6
2023-03-30T23:15:22.660Z,8.6
2023-03-30T23:20:28.779Z,8.9
2023-03-30T23:25:34.873Z,8.6
2023-03-30T23:30:41.064Z,8.6
2023-03-30T23:35:47.090Z,8.6
2023-03-30T23:40:53.216Z,8.9
2023-03-30T23:45:58.329Z,8.6
2023-03-30T23:51:04.445Z,8.6
2023-03-30T23:56:10.561Z,8
